sensor_id;sensor_type;location;lat;lon;timestamp;P1;durP1;ratioP1;P2;durP2;ratioP2
1691;SDS011;843;52.054;8.552;2024-02-23T00:01:03;7.40;;;6.80;;
1691;SDS011;843;52.054;8.552;2024-02-23T00:03:29;6.50;;;5.87;;
1691;SDS011;843;52.054;8.552;2024-02-23T00:05:57;6.47;;;6.07;;
1691;SDS011;843;52.054;8.552;2024-02-23T00:08:23;6.00;;;5.60;;
1691;SDS011;843;52.054;8.552;2024-02-23T00:10:51;6.23;;;5.83;;
1691;SDS011;843;52.054;8.552;2024-02-23T00:13:17;7.03;;;6.13;;
1691;SDS011;843;52.054;8.552;2024-02-23T00:15:43;8.40;;;5.90;;
1691;SDS011;843;52.054;8.552;2024-02-23T00:18:10;6.60;;;6.10;;
1691;SDS011;843;52.054;8.552;2024-02-23T00:20:38;6.13;;;5.60;;
1691;SDS011;843;52.054;8.552;2024-02-23T00:23:04;7.50;;;5.20;;
1691;SDS011;843;52.054;8.552;2024-02-23T00:25:30;6.20;;;5.83;;
1691;SDS011;843;52.054;8.552;2024-02-23T00:27:58;6.13;;;5.73;;
1691;SDS011;843;52.054;8.552;2024-02-23T00:30:25;5.40;;;5.10;;
1691;SDS011;843;52.054;8.552;2024-02-23T00:32:52;6.30;;;5.90;;
1691;SDS011;843;52.054;8.552;2024-02-23T00:35:18;5.50;;;5.20;;
1691;SDS011;843;52.054;8.552;2024-02-23T00:37:45;4.70;;;4.50;;
1691;SDS011;843;52.054;8.552;2024-02-23T00:40:12;6.20;;;5.90;;
1691;SDS011;843;52.054;8.552;2024-02-23T00:42:38;4.77;;;4.40;;
1691;SDS011;843;52.054;8.552;2024-02-23T00:45:06;4.13;;;3.93;;
1691;SDS011;843;52.054;8.552;2024-02-23T00:47:33;3.60;;;3.50;;
1691;SDS011;843;52.054;8.552;2024-02-23T00:50:00;4.90;;;3.30;;
1691;SDS011;843;52.054;8.552;2024-02-23T00:52:26;3.83;;;3.67;;
1691;SDS011;843;52.054;8.552;2024-02-23T00:54:53;3.73;;;3.47;;
1691;SDS011;843;52.054;8.552;2024-02-23T00:57:19;3.43;;;3.30;;
1691;SDS011;843;52.054;8.552;2024-02-23T00:59:52;3.87;;;3.70;;
1691;SDS011;843;52.054;8.552;2024-02-23T01:02:20;3.07;;;2.97;;
1691;SDS011;843;52.054;8.552;2024-02-23T01:04:46;3.30;;;3.20;;
1691;SDS011;843;52.054;8.552;2024-02-23T01:07:12;3.40;;;3.30;;
1691;SDS011;843;52.054;8.552;2024-02-23T01:09:39;3.23;;;3.13;;
1691;SDS011;843;52.054;8.552;2024-02-23T01:12:05;3.10;;;3.00;;
1691;SDS011;843;52.054;8.552;2024-02-23T01:14:32;3.10;;;3.00;;
1691;SDS011;843;52.054;8.552;2024-02-23T01:16:58;3.30;;;3.20;;
1691;SDS011;843;52.054;8.552;2024-02-23T01:19:26;3.30;;;3.20;;
1691;SDS011;843;52.054;8.552;2024-02-23T01:21:52;3.47;;;3.27;;
1691;SDS011;843;52.054;8.552;2024-02-23T01:24:24;3.10;;;3.00;;
1691;SDS011;843;52.054;8.552;2024-02-23T01:26:52;3.40;;;3.30;;
1691;SDS011;843;52.054;8.552;2024-02-23T01:29:19;3.43;;;3.23;;
1691;SDS011;843;52.054;8.552;2024-02-23T01:31:45;3.43;;;3.33;;
1691;SDS011;843;52.054;8.552;2024-02-23T01:34:11;3.37;;;3.27;;
1691;SDS011;843;52.054;8.552;2024-02-23T01:36:39;3.30;;;3.20;;
1691;SDS011;843;52.054;8.552;2024-02-23T01:39:05;3.97;;;3.77;;
1691;SDS011;843;52.054;8.552;2024-02-23T01:41:32;3.73;;;3.60;;
1691;SDS011;843;52.054;8.552;2024-02-23T01:43:58;3.80;;;3.70;;
1691;SDS011;843;52.054;8.552;2024-02-23T01:46:25;3.70;;;3.60;;
1691;SDS011;843;52.054;8.552;2024-02-23T01:48:51;3.83;;;3.70;;
1691;SDS011;843;52.054;8.552;2024-02-23T01:51:18;3.73;;;3.53;;
1691;SDS011;843;52.054;8.552;2024-02-23T01:53:46;3.50;;;3.33;;
1691;SDS011;843;52.054;8.552;2024-02-23T01:56:12;4.10;;;3.90;;
1691;SDS011;843;52.054;8.552;2024-02-23T01:58:42;4.73;;;4.53;;
1691;SDS011;843;52.054;8.552;2024-02-23T02:01:09;4.30;;;4.10;;
1691;SDS011;843;52.054;8.552;2024-02-23T02:03:36;4.77;;;4.47;;
1691;SDS011;843;52.054;8.552;2024-02-23T02:06:02;5.17;;;4.97;;
1691;SDS011;843;52.054;8.552;2024-02-23T02:08:29;4.70;;;4.50;;
1691;SDS011;843;52.054;8.552;2024-02-23T02:10:57;4.93;;;4.73;;
1691;SDS011;843;52.054;8.552;2024-02-23T02:13:23;5.17;;;4.83;;
1691;SDS011;843;52.054;8.552;2024-02-23T02:15:49;5.17;;;4.97;;
1691;SDS011;843;52.054;8.552;2024-02-23T02:18:16;5.90;;;5.30;;
1691;SDS011;843;52.054;8.552;2024-02-23T02:20:47;5.20;;;4.77;;
1691;SDS011;843;52.054;8.552;2024-02-23T02:23:17;6.00;;;5.60;;
1691;SDS011;843;52.054;8.552;2024-02-23T02:25:43;5.37;;;5.10;;
1691;SDS011;843;52.054;8.552;2024-02-23T02:28:11;5.50;;;5.20;;
1691;SDS011;843;52.054;8.552;2024-02-23T02:30:37;5.63;;;5.33;;
1691;SDS011;843;52.054;8.552;2024-02-23T02:33:04;5.60;;;5.30;;
1691;SDS011;843;52.054;8.552;2024-02-23T02:35:30;5.70;;;5.40;;
1691;SDS011;843;52.054;8.552;2024-02-23T02:37:57;5.20;;;5.00;;
1691;SDS011;843;52.054;8.552;2024-02-23T02:40:23;5.67;;;5.37;;
1691;SDS011;843;52.054;8.552;2024-02-23T02:42:49;6.03;;;5.73;;
1691;SDS011;843;52.054;8.552;2024-02-23T02:45:18;6.53;;;6.10;;
1691;SDS011;843;52.054;8.552;2024-02-23T02:47:44;6.33;;;5.97;;
1691;SDS011;843;52.054;8.552;2024-02-23T02:50:10;7.23;;;6.73;;
1691;SDS011;843;52.054;8.552;2024-02-23T02:52:37;7.47;;;7.00;;
1691;SDS011;843;52.054;8.552;2024-02-23T02:55:03;7.30;;;6.80;;
1691;SDS011;843;52.054;8.552;2024-02-23T02:57:30;6.80;;;6.50;;
1691;SDS011;843;52.054;8.552;2024-02-23T02:59:56;6.47;;;6.13;;
1691;SDS011;843;52.054;8.552;2024-02-23T03:02:24;7.67;;;7.17;;
1691;SDS011;843;52.054;8.552;2024-02-23T03:04:50;7.50;;;7.10;;
1691;SDS011;843;52.054;8.552;2024-02-23T03:07:19;6.60;;;6.03;;
1691;SDS011;843;52.054;8.552;2024-02-23T03:09:45;6.63;;;6.23;;
1691;SDS011;843;52.054;8.552;2024-02-23T03:12:11;6.37;;;6.03;;
1691;SDS011;843;52.054;8.552;2024-02-23T03:14:38;6.50;;;6.00;;
1691;SDS011;843;52.054;8.552;2024-02-23T03:17:05;7.43;;;6.77;;
1691;SDS011;843;52.054;8.552;2024-02-23T03:19:33;7.07;;;6.57;;
1691;SDS011;843;52.054;8.552;2024-02-23T03:22:00;6.80;;;6.43;;
1691;SDS011;843;52.054;8.552;2024-02-23T03:24:26;6.40;;;6.10;;
1691;SDS011;843;52.054;8.552;2024-02-23T03:26:53;7.53;;;6.97;;
1691;SDS011;843;52.054;8.552;2024-02-23T03:29:20;6.43;;;5.90;;
1691;SDS011;843;52.054;8.552;2024-02-23T03:31:47;6.50;;;5.90;;
1691;SDS011;843;52.054;8.552;2024-02-23T03:34:13;6.73;;;6.23;;
1691;SDS011;843;52.054;8.552;2024-02-23T03:36:41;7.40;;;6.90;;
1691;SDS011;843;52.054;8.552;2024-02-23T03:39:07;6.80;;;6.50;;
1691;SDS011;843;52.054;8.552;2024-02-23T03:41:34;6.87;;;6.37;;
1691;SDS011;843;52.054;8.552;2024-02-23T03:44:00;6.87;;;6.30;;
1691;SDS011;843;52.054;8.552;2024-02-23T03:46:27;6.90;;;6.30;;
1691;SDS011;843;52.054;8.552;2024-02-23T03:48:53;7.40;;;6.80;;
1691;SDS011;843;52.054;8.552;2024-02-23T03:51:19;7.43;;;6.93;;
1691;SDS011;843;52.054;8.552;2024-02-23T03:53:47;6.70;;;6.40;;
1691;SDS011;843;52.054;8.552;2024-02-23T03:56:14;6.60;;;6.30;;
1691;SDS011;843;52.054;8.552;2024-02-23T03:58:40;6.93;;;6.53;;
1691;SDS011;843;52.054;8.552;2024-02-23T04:01:07;6.50;;;5.90;;
1691;SDS011;843;52.054;8.552;2024-02-23T04:03:33;6.40;;;6.00;;
1691;SDS011;843;52.054;8.552;2024-02-23T04:06:00;6.20;;;5.80;;
1691;SDS011;843;52.054;8.552;2024-02-23T04:08:26;6.57;;;6.10;;
1691;SDS011;843;52.054;8.552;2024-02-23T04:10:54;6.57;;;6.07;;
1691;SDS011;843;52.054;8.552;2024-02-23T04:13:20;6.60;;;6.13;;
1691;SDS011;843;52.054;8.552;2024-02-23T04:15:47;6.20;;;5.90;;
1691;SDS011;843;52.054;8.552;2024-02-23T04:18:13;6.93;;;6.63;;
1691;SDS011;843;52.054;8.552;2024-02-23T04:20:39;7.03;;;6.40;;
1691;SDS011;843;52.054;8.552;2024-02-23T04:23:06;7.20;;;6.57;;
1691;SDS011;843;52.054;8.552;2024-02-23T04:25:32;6.40;;;6.10;;
1691;SDS011;843;52.054;8.552;2024-02-23T04:28:03;6.67;;;6.07;;
1691;SDS011;843;52.054;8.552;2024-02-23T04:30:29;6.30;;;6.00;;
1691;SDS011;843;52.054;8.552;2024-02-23T04:32:56;6.63;;;6.17;;
1691;SDS011;843;52.054;8.552;2024-02-23T04:35:22;6.63;;;6.20;;
1691;SDS011;843;52.054;8.552;2024-02-23T04:37:49;6.87;;;6.37;;
1691;SDS011;843;52.054;8.552;2024-02-23T04:40:15;6.70;;;6.40;;
1691;SDS011;843;52.054;8.552;2024-02-23T04:42:42;7.67;;;6.03;;
1691;SDS011;843;52.054;8.552;2024-02-23T04:45:10;6.67;;;6.33;;
1691;SDS011;843;52.054;8.552;2024-02-23T04:47:37;7.00;;;6.40;;
1691;SDS011;843;52.054;8.552;2024-02-23T04:50:05;7.43;;;6.30;;
1691;SDS011;843;52.054;8.552;2024-02-23T04:52:32;7.00;;;6.40;;
1691;SDS011;843;52.054;8.552;2024-02-23T04:54:58;7.80;;;6.63;;
1691;SDS011;843;52.054;8.552;2024-02-23T04:57:25;9.57;;;6.17;;
1691;SDS011;843;52.054;8.552;2024-02-23T04:59:51;7.10;;;6.43;;
1691;SDS011;843;52.054;8.552;2024-02-23T05:02:19;6.80;;;6.20;;
1691;SDS011;843;52.054;8.552;2024-02-23T05:04:45;7.03;;;6.37;;
1691;SDS011;843;52.054;8.552;2024-02-23T05:07:12;6.47;;;6.03;;
1691;SDS011;843;52.054;8.552;2024-02-23T05:09:38;8.47;;;6.70;;
1691;SDS011;843;52.054;8.552;2024-02-23T05:12:06;6.63;;;6.17;;
1691;SDS011;843;52.054;8.552;2024-02-23T05:14:32;7.17;;;6.67;;
1691;SDS011;843;52.054;8.552;2024-02-23T05:16:59;8.53;;;6.97;;
1691;SDS011;843;52.054;8.552;2024-02-23T05:19:26;7.33;;;6.77;;
1691;SDS011;843;52.054;8.552;2024-02-23T05:21:53;6.23;;;5.73;;
1691;SDS011;843;52.054;8.552;2024-02-23T05:24:19;7.17;;;6.67;;
1691;SDS011;843;52.054;8.552;2024-02-23T05:26:45;6.83;;;5.63;;
1691;SDS011;843;52.054;8.552;2024-02-23T05:29:12;8.83;;;6.23;;
1691;SDS011;843;52.054;8.552;2024-02-23T05:31:43;9.37;;;7.07;;
1691;SDS011;843;52.054;8.552;2024-02-23T05:34:09;7.10;;;6.40;;
1691;SDS011;843;52.054;8.552;2024-02-23T05:36:36;5.57;;;5.07;;
1691;SDS011;843;52.054;8.552;2024-02-23T05:39:03;10.70;;;9.80;;
1691;SDS011;843;52.054;8.552;2024-02-23T05:41:30;5.70;;;5.20;;
1691;SDS011;843;52.054;8.552;2024-02-23T05:43:56;5.93;;;5.53;;
1691;SDS011;843;52.054;8.552;2024-02-23T05:46:22;5.27;;;5.00;;
1691;SDS011;843;52.054;8.552;2024-02-23T05:48:49;10.70;;;10.00;;
1691;SDS011;843;52.054;8.552;2024-02-23T05:51:15;11.07;;;10.07;;
1691;SDS011;843;52.054;8.552;2024-02-23T05:53:43;10.73;;;10.03;;
1691;SDS011;843;52.054;8.552;2024-02-23T05:56:10;11.63;;;10.87;;
1691;SDS011;843;52.054;8.552;2024-02-23T05:58:36;6.63;;;6.33;;
1691;SDS011;843;52.054;8.552;2024-02-23T06:01:03;6.77;;;6.20;;
1691;SDS011;843;52.054;8.552;2024-02-23T06:03:30;8.07;;;7.30;;
1691;SDS011;843;52.054;8.552;2024-02-23T06:05:56;7.43;;;6.70;;
1691;SDS011;843;52.054;8.552;2024-02-23T06:08:22;7.03;;;6.53;;
1691;SDS011;843;52.054;8.552;2024-02-23T06:10:50;6.93;;;6.53;;
1691;SDS011;843;52.054;8.552;2024-02-23T06:13:16;8.70;;;6.70;;
1691;SDS011;843;52.054;8.552;2024-02-23T06:15:43;7.10;;;6.40;;
1691;SDS011;843;52.054;8.552;2024-02-23T06:18:09;7.40;;;6.63;;
1691;SDS011;843;52.054;8.552;2024-02-23T06:20:35;7.23;;;6.53;;
1691;SDS011;843;52.054;8.552;2024-02-23T06:23:02;6.70;;;6.23;;
1691;SDS011;843;52.054;8.552;2024-02-23T06:25:28;7.13;;;6.03;;
1691;SDS011;843;52.054;8.552;2024-02-23T06:27:56;7.93;;;6.47;;
1691;SDS011;843;52.054;8.552;2024-02-23T06:30:22;7.03;;;6.50;;
1691;SDS011;843;52.054;8.552;2024-02-23T06:32:49;6.80;;;6.37;;
1691;SDS011;843;52.054;8.552;2024-02-23T06:35:15;7.03;;;6.43;;
1691;SDS011;843;52.054;8.552;2024-02-23T06:37:42;7.43;;;6.67;;
1691;SDS011;843;52.054;8.552;2024-02-23T06:40:08;6.73;;;6.43;;
1691;SDS011;843;52.054;8.552;2024-02-23T06:42:35;12.00;;;6.57;;
1691;SDS011;843;52.054;8.552;2024-02-23T06:45:03;7.37;;;6.83;;
1691;SDS011;843;52.054;8.552;2024-02-23T06:47:29;6.60;;;6.30;;
1691;SDS011;843;52.054;8.552;2024-02-23T06:49:56;7.60;;;6.53;;
1691;SDS011;843;52.054;8.552;2024-02-23T06:52:22;7.87;;;7.03;;
1691;SDS011;843;52.054;8.552;2024-02-23T06:54:51;6.30;;;5.90;;
1691;SDS011;843;52.054;8.552;2024-02-23T06:57:17;7.33;;;6.73;;
1691;SDS011;843;52.054;8.552;2024-02-23T06:59:43;6.37;;;5.97;;
1691;SDS011;843;52.054;8.552;2024-02-23T07:02:12;6.80;;;6.20;;
1691;SDS011;843;52.054;8.552;2024-02-23T07:04:38;6.40;;;5.90;;
1691;SDS011;843;52.054;8.552;2024-02-23T07:07:04;6.60;;;6.00;;
1691;SDS011;843;52.054;8.552;2024-02-23T07:09:33;6.97;;;6.23;;
1691;SDS011;843;52.054;8.552;2024-02-23T07:11:59;6.83;;;6.23;;
1691;SDS011;843;52.054;8.552;2024-02-23T07:14:26;7.47;;;6.57;;
1691;SDS011;843;52.054;8.552;2024-02-23T07:16:52;6.73;;;6.27;;
1691;SDS011;843;52.054;8.552;2024-02-23T07:19:20;8.03;;;7.37;;
1691;SDS011;843;52.054;8.552;2024-02-23T07:21:46;9.60;;;7.33;;
1691;SDS011;843;52.054;8.552;2024-02-23T07:24:13;9.73;;;6.60;;
1691;SDS011;843;52.054;8.552;2024-02-23T07:26:39;6.57;;;5.97;;
1691;SDS011;843;52.054;8.552;2024-02-23T07:29:06;6.37;;;6.00;;
1691;SDS011;843;52.054;8.552;2024-02-23T07:31:33;6.87;;;6.23;;
1691;SDS011;843;52.054;8.552;2024-02-23T07:33:59;7.47;;;6.97;;
1691;SDS011;843;52.054;8.552;2024-02-23T07:36:27;6.53;;;5.93;;
1691;SDS011;843;52.054;8.552;2024-02-23T07:38:53;6.00;;;5.50;;
1691;SDS011;843;52.054;8.552;2024-02-23T07:41:20;6.17;;;5.57;;
1691;SDS011;843;52.054;8.552;2024-02-23T07:43:47;8.13;;;6.10;;
1691;SDS011;843;52.054;8.552;2024-02-23T07:46:14;6.50;;;5.90;;
1691;SDS011;843;52.054;8.552;2024-02-23T07:48:41;6.13;;;5.60;;
1691;SDS011;843;52.054;8.552;2024-02-23T07:51:08;6.93;;;6.53;;
1691;SDS011;843;52.054;8.552;2024-02-23T07:53:35;8.23;;;6.53;;
1691;SDS011;843;52.054;8.552;2024-02-23T07:56:02;7.13;;;6.53;;
1691;SDS011;843;52.054;8.552;2024-02-23T07:58:29;7.90;;;6.67;;
1691;SDS011;843;52.054;8.552;2024-02-23T08:00:56;7.70;;;7.00;;
1691;SDS011;843;52.054;8.552;2024-02-23T08:03:22;8.23;;;6.87;;
1691;SDS011;843;52.054;8.552;2024-02-23T08:05:49;6.80;;;6.50;;
1691;SDS011;843;52.054;8.552;2024-02-23T08:08:15;6.90;;;6.50;;
1691;SDS011;843;52.054;8.552;2024-02-23T08:10:43;7.43;;;6.73;;
1691;SDS011;843;52.054;8.552;2024-02-23T08:13:09;7.30;;;6.90;;
1691;SDS011;843;52.054;8.552;2024-02-23T08:15:36;7.57;;;7.00;;
1691;SDS011;843;52.054;8.552;2024-02-23T08:18:02;6.97;;;6.67;;
1691;SDS011;843;52.054;8.552;2024-02-23T08:20:29;7.30;;;6.80;;
1691;SDS011;843;52.054;8.552;2024-02-23T08:22:55;7.60;;;7.10;;
1691;SDS011;843;52.054;8.552;2024-02-23T08:25:22;7.00;;;6.60;;
1691;SDS011;843;52.054;8.552;2024-02-23T08:27:49;7.37;;;6.97;;
1691;SDS011;843;52.054;8.552;2024-02-23T08:30:16;6.73;;;6.23;;
1691;SDS011;843;52.054;8.552;2024-02-23T08:32:44;7.60;;;7.20;;
1691;SDS011;843;52.054;8.552;2024-02-23T08:35:10;7.07;;;6.47;;
1691;SDS011;843;52.054;8.552;2024-02-23T08:37:37;7.70;;;6.93;;
1691;SDS011;843;52.054;8.552;2024-02-23T08:40:03;7.23;;;6.70;;
1691;SDS011;843;52.054;8.552;2024-02-23T08:42:31;7.00;;;6.50;;
1691;SDS011;843;52.054;8.552;2024-02-23T08:44:59;6.97;;;6.47;;
1691;SDS011;843;52.054;8.552;2024-02-23T08:47:25;6.93;;;6.53;;
1691;SDS011;843;52.054;8.552;2024-02-23T08:49:57;6.90;;;6.30;;
1691;SDS011;843;52.054;8.552;2024-02-23T08:52:23;7.40;;;6.40;;
1691;SDS011;843;52.054;8.552;2024-02-23T08:54:50;6.20;;;5.90;;
1691;SDS011;843;52.054;8.552;2024-02-23T08:57:17;9.93;;;6.90;;
1691;SDS011;843;52.054;8.552;2024-02-23T08:59:45;7.97;;;7.27;;
1691;SDS011;843;52.054;8.552;2024-02-23T09:02:12;6.60;;;6.30;;
1691;SDS011;843;52.054;8.552;2024-02-23T09:04:39;6.57;;;5.90;;
1691;SDS011;843;52.054;8.552;2024-02-23T09:07:05;6.57;;;6.17;;
1691;SDS011;843;52.054;8.552;2024-02-23T09:09:32;7.20;;;6.70;;
1691;SDS011;843;52.054;8.552;2024-02-23T09:11:58;6.23;;;5.90;;
1691;SDS011;843;52.054;8.552;2024-02-23T09:14:25;6.60;;;6.13;;
1691;SDS011;843;52.054;8.552;2024-02-23T09:16:51;6.90;;;6.20;;
1691;SDS011;843;52.054;8.552;2024-02-23T09:19:19;6.60;;;6.10;;
1691;SDS011;843;52.054;8.552;2024-02-23T09:21:47;6.60;;;5.70;;
1691;SDS011;843;52.054;8.552;2024-02-23T09:24:13;8.20;;;5.80;;
1691;SDS011;843;52.054;8.552;2024-02-23T09:26:39;6.60;;;6.10;;
1691;SDS011;843;52.054;8.552;2024-02-23T09:29:06;8.03;;;6.40;;
1691;SDS011;843;52.054;8.552;2024-02-23T09:31:32;7.37;;;6.23;;
1691;SDS011;843;52.054;8.552;2024-02-23T09:33:58;6.80;;;6.30;;
1691;SDS011;843;52.054;8.552;2024-02-23T09:36:26;6.47;;;5.87;;
1691;SDS011;843;52.054;8.552;2024-02-23T09:38:53;6.20;;;5.83;;
1691;SDS011;843;52.054;8.552;2024-02-23T09:41:20;7.20;;;5.60;;
1691;SDS011;843;52.054;8.552;2024-02-23T09:43:47;6.90;;;6.40;;
1691;SDS011;843;52.054;8.552;2024-02-23T09:46:14;6.10;;;5.80;;
1691;SDS011;843;52.054;8.552;2024-02-23T09:48:43;6.07;;;5.67;;
1691;SDS011;843;52.054;8.552;2024-02-23T09:51:10;6.33;;;5.70;;
1691;SDS011;843;52.054;8.552;2024-02-23T09:53:38;6.20;;;5.80;;
1691;SDS011;843;52.054;8.552;2024-02-23T09:56:05;6.40;;;5.90;;
1691;SDS011;843;52.054;8.552;2024-02-23T09:58:31;6.63;;;6.13;;
1691;SDS011;843;52.054;8.552;2024-02-23T10:00:59;6.67;;;6.17;;
1691;SDS011;843;52.054;8.552;2024-02-23T10:03:28;6.57;;;6.10;;
1691;SDS011;843;52.054;8.552;2024-02-23T10:05:55;6.33;;;5.93;;
1691;SDS011;843;52.054;8.552;2024-02-23T10:08:22;6.63;;;6.10;;
1691;SDS011;843;52.054;8.552;2024-02-23T10:10:50;6.37;;;6.03;;
1691;SDS011;843;52.054;8.552;2024-02-23T10:13:17;5.97;;;5.57;;
1691;SDS011;843;52.054;8.552;2024-02-23T10:15:44;6.23;;;5.83;;
1691;SDS011;843;52.054;8.552;2024-02-23T10:18:10;10.20;;;9.60;;
1691;SDS011;843;52.054;8.552;2024-02-23T10:20:36;11.40;;;10.07;;
1691;SDS011;843;52.054;8.552;2024-02-23T10:23:04;8.73;;;7.93;;
1691;SDS011;843;52.054;8.552;2024-02-23T10:25:32;6.37;;;5.73;;
1691;SDS011;843;52.054;8.552;2024-02-23T10:28:00;8.10;;;7.60;;
1691;SDS011;843;52.054;8.552;2024-02-23T10:30:27;5.67;;;5.17;;
1691;SDS011;843;52.054;8.552;2024-02-23T10:32:54;9.23;;;8.43;;
1691;SDS011;843;52.054;8.552;2024-02-23T10:35:21;6.00;;;5.20;;
1691;SDS011;843;52.054;8.552;2024-02-23T10:37:48;7.67;;;4.50;;
1691;SDS011;843;52.054;8.552;2024-02-23T10:40:17;5.50;;;5.00;;
1691;SDS011;843;52.054;8.552;2024-02-23T10:42:44;4.83;;;4.53;;
1691;SDS011;843;52.054;8.552;2024-02-23T10:45:14;5.03;;;4.50;;
1691;SDS011;843;52.054;8.552;2024-02-23T10:47:42;9.30;;;4.67;;
1691;SDS011;843;52.054;8.552;2024-02-23T10:50:08;5.60;;;5.20;;
1691;SDS011;843;52.054;8.552;2024-02-23T10:52:38;5.57;;;5.10;;
1691;SDS011;843;52.054;8.552;2024-02-23T10:55:06;6.00;;;5.53;;
1691;SDS011;843;52.054;8.552;2024-02-23T10:57:34;8.20;;;4.60;;
1691;SDS011;843;52.054;8.552;2024-02-23T11:00:01;6.27;;;5.70;;
1691;SDS011;843;52.054;8.552;2024-02-23T11:02:32;5.13;;;4.83;;
1691;SDS011;843;52.054;8.552;2024-02-23T11:05:00;4.60;;;4.20;;
1691;SDS011;843;52.054;8.552;2024-02-23T11:07:29;6.03;;;4.73;;
1691;SDS011;843;52.054;8.552;2024-02-23T11:09:58;4.57;;;4.27;;
1691;SDS011;843;52.054;8.552;2024-02-23T11:12:25;5.13;;;4.67;;
1691;SDS011;843;52.054;8.552;2024-02-23T11:14:51;4.83;;;4.47;;
1691;SDS011;843;52.054;8.552;2024-02-23T11:17:22;4.67;;;4.27;;
1691;SDS011;843;52.054;8.552;2024-02-23T11:19:50;5.73;;;4.87;;
1691;SDS011;843;52.054;8.552;2024-02-23T11:22:23;4.93;;;4.60;;
1691;SDS011;843;52.054;8.552;2024-02-23T11:24:49;4.57;;;4.27;;
1691;SDS011;843;52.054;8.552;2024-02-23T11:27:16;8.70;;;4.67;;
1691;SDS011;843;52.054;8.552;2024-02-23T11:29:43;5.40;;;4.90;;
1691;SDS011;843;52.054;8.552;2024-02-23T11:32:12;5.07;;;4.67;;
1691;SDS011;843;52.054;8.552;2024-02-23T11:34:38;5.00;;;4.60;;
1691;SDS011;843;52.054;8.552;2024-02-23T11:37:08;5.33;;;4.67;;
1691;SDS011;843;52.054;8.552;2024-02-23T11:39:35;8.40;;;4.90;;
1691;SDS011;843;52.054;8.552;2024-02-23T11:42:03;4.90;;;4.53;;
1691;SDS011;843;52.054;8.552;2024-02-23T11:44:30;5.30;;;4.90;;
1691;SDS011;843;52.054;8.552;2024-02-23T11:46:57;5.30;;;4.80;;
1691;SDS011;843;52.054;8.552;2024-02-23T11:49:26;5.00;;;4.50;;
1691;SDS011;843;52.054;8.552;2024-02-23T11:51:53;6.23;;;5.80;;
1691;SDS011;843;52.054;8.552;2024-02-23T11:54:21;6.60;;;6.10;;
1691;SDS011;843;52.054;8.552;2024-02-23T11:56:47;5.37;;;4.60;;
1691;SDS011;843;52.054;8.552;2024-02-23T11:59:14;6.30;;;5.90;;
1691;SDS011;843;52.054;8.552;2024-02-23T12:01:41;5.40;;;5.10;;
1691;SDS011;843;52.054;8.552;2024-02-23T12:04:07;6.43;;;5.83;;
1691;SDS011;843;52.054;8.552;2024-02-23T12:06:34;6.53;;;5.40;;
1691;SDS011;843;52.054;8.552;2024-02-23T12:09:00;11.23;;;6.00;;
1691;SDS011;843;52.054;8.552;2024-02-23T12:11:28;7.50;;;4.40;;
1691;SDS011;843;52.054;8.552;2024-02-23T12:13:55;7.00;;;4.43;;
1691;SDS011;843;52.054;8.552;2024-02-23T12:16:22;5.00;;;4.50;;
1691;SDS011;843;52.054;8.552;2024-02-23T12:18:52;6.30;;;4.30;;
1691;SDS011;843;52.054;8.552;2024-02-23T12:21:18;5.80;;;4.87;;
1691;SDS011;843;52.054;8.552;2024-02-23T12:23:45;4.37;;;4.17;;
1691;SDS011;843;52.054;8.552;2024-02-23T12:26:12;5.60;;;5.27;;
1691;SDS011;843;52.054;8.552;2024-02-23T12:28:40;4.13;;;3.83;;
1691;SDS011;843;52.054;8.552;2024-02-23T12:31:07;8.17;;;4.70;;
1691;SDS011;843;52.054;8.552;2024-02-23T12:33:34;4.80;;;4.40;;
1691;SDS011;843;52.054;8.552;2024-02-23T12:36:01;4.57;;;4.13;;
1691;SDS011;843;52.054;8.552;2024-02-23T12:38:27;10.63;;;5.47;;
1691;SDS011;843;52.054;8.552;2024-02-23T12:40:54;6.00;;;5.43;;
1691;SDS011;843;52.054;8.552;2024-02-23T12:43:20;6.30;;;5.90;;
1691;SDS011;843;52.054;8.552;2024-02-23T12:45:50;11.90;;;6.23;;
1691;SDS011;843;52.054;8.552;2024-02-23T12:48:17;7.97;;;6.70;;
1691;SDS011;843;52.054;8.552;2024-02-23T12:50:43;6.27;;;5.77;;
1691;SDS011;843;52.054;8.552;2024-02-23T12:53:10;5.47;;;5.07;;
1691;SDS011;843;52.054;8.552;2024-02-23T12:55:37;6.67;;;5.37;;
1691;SDS011;843;52.054;8.552;2024-02-23T12:58:04;8.70;;;5.03;;
1691;SDS011;843;52.054;8.552;2024-02-23T13:00:30;5.20;;;4.80;;
1691;SDS011;843;52.054;8.552;2024-02-23T13:02:58;6.50;;;6.10;;
1691;SDS011;843;52.054;8.552;2024-02-23T13:05:25;6.93;;;6.00;;
1691;SDS011;843;52.054;8.552;2024-02-23T13:07:51;7.33;;;6.60;;
1691;SDS011;843;52.054;8.552;2024-02-23T13:10:17;6.57;;;6.07;;
1691;SDS011;843;52.054;8.552;2024-02-23T13:12:45;15.30;;;8.70;;
1691;SDS011;843;52.054;8.552;2024-02-23T13:15:11;13.43;;;6.53;;
1691;SDS011;843;52.054;8.552;2024-02-23T13:17:38;6.07;;;5.63;;
1691;SDS011;843;52.054;8.552;2024-02-23T13:20:07;6.07;;;5.70;;
1691;SDS011;843;52.054;8.552;2024-02-23T13:22:33;5.53;;;5.03;;
1691;SDS011;843;52.054;8.552;2024-02-23T13:25:00;4.90;;;4.47;;
1691;SDS011;843;52.054;8.552;2024-02-23T13:27:26;4.73;;;4.53;;
1691;SDS011;843;52.054;8.552;2024-02-23T13:29:52;6.23;;;4.33;;
1691;SDS011;843;52.054;8.552;2024-02-23T13:32:19;4.67;;;4.37;;
1691;SDS011;843;52.054;8.552;2024-02-23T13:34:45;5.53;;;5.07;;
1691;SDS011;843;52.054;8.552;2024-02-23T13:37:13;4.77;;;4.43;;
1691;SDS011;843;52.054;8.552;2024-02-23T13:39:39;5.00;;;4.57;;
1691;SDS011;843;52.054;8.552;2024-02-23T13:42:06;4.63;;;4.33;;
1691;SDS011;843;52.054;8.552;2024-02-23T13:44:34;5.03;;;4.73;;
1691;SDS011;843;52.054;8.552;2024-02-23T13:47:01;5.67;;;5.17;;
1691;SDS011;843;52.054;8.552;2024-02-23T13:49:27;6.07;;;5.60;;
1691;SDS011;843;52.054;8.552;2024-02-23T13:51:54;5.83;;;5.40;;
1691;SDS011;843;52.054;8.552;2024-02-23T13:54:21;6.30;;;5.83;;
1691;SDS011;843;52.054;8.552;2024-02-23T13:56:48;5.90;;;5.50;;
1691;SDS011;843;52.054;8.552;2024-02-23T13:59:14;6.10;;;5.60;;
1691;SDS011;843;52.054;8.552;2024-02-23T14:01:41;4.90;;;4.50;;
1691;SDS011;843;52.054;8.552;2024-02-23T14:04:07;6.50;;;4.77;;
1691;SDS011;843;52.054;8.552;2024-02-23T14:06:34;4.73;;;4.30;;
1691;SDS011;843;52.054;8.552;2024-02-23T14:09:00;7.60;;;4.83;;
1691;SDS011;843;52.054;8.552;2024-02-23T14:11:29;5.07;;;4.67;;
1691;SDS011;843;52.054;8.552;2024-02-23T14:13:56;5.70;;;5.37;;
1691;SDS011;843;52.054;8.552;2024-02-23T14:16:22;5.63;;;5.33;;
1691;SDS011;843;52.054;8.552;2024-02-23T14:18:49;5.50;;;5.20;;
1691;SDS011;843;52.054;8.552;2024-02-23T14:21:15;5.67;;;5.30;;
1691;SDS011;843;52.054;8.552;2024-02-23T14:23:43;5.80;;;5.40;;
1691;SDS011;843;52.054;8.552;2024-02-23T14:26:09;5.60;;;5.10;;
1691;SDS011;843;52.054;8.552;2024-02-23T14:28:38;6.57;;;4.93;;
1691;SDS011;843;52.054;8.552;2024-02-23T14:31:06;5.10;;;4.70;;
1691;SDS011;843;52.054;8.552;2024-02-23T14:33:32;4.90;;;4.40;;
1691;SDS011;843;52.054;8.552;2024-02-23T14:35:59;5.83;;;5.53;;
1691;SDS011;843;52.054;8.552;2024-02-23T14:38:25;5.47;;;4.97;;
1691;SDS011;843;52.054;8.552;2024-02-23T14:40:51;6.70;;;6.10;;
1691;SDS011;843;52.054;8.552;2024-02-23T14:43:18;6.27;;;5.87;;
1691;SDS011;843;52.054;8.552;2024-02-23T14:45:46;6.23;;;5.73;;
1691;SDS011;843;52.054;8.552;2024-02-23T14:48:12;6.67;;;6.23;;
1691;SDS011;843;52.054;8.552;2024-02-23T14:50:38;5.73;;;5.17;;
1691;SDS011;843;52.054;8.552;2024-02-23T14:53:05;5.17;;;4.80;;
1691;SDS011;843;52.054;8.552;2024-02-23T14:55:33;5.53;;;5.00;;
1691;SDS011;843;52.054;8.552;2024-02-23T14:57:59;4.90;;;4.50;;
1691;SDS011;843;52.054;8.552;2024-02-23T15:00:26;5.03;;;4.73;;
1691;SDS011;843;52.054;8.552;2024-02-23T15:02:56;5.87;;;5.30;;
1691;SDS011;843;52.054;8.552;2024-02-23T15:05:23;5.53;;;5.13;;
1691;SDS011;843;52.054;8.552;2024-02-23T15:07:49;5.17;;;4.70;;
1691;SDS011;843;52.054;8.552;2024-02-23T15:10:16;4.93;;;4.53;;
1691;SDS011;843;52.054;8.552;2024-02-23T15:12:42;4.90;;;4.60;;
1691;SDS011;843;52.054;8.552;2024-02-23T15:15:09;5.40;;;4.73;;
1691;SDS011;843;52.054;8.552;2024-02-23T15:17:36;5.83;;;4.90;;
1691;SDS011;843;52.054;8.552;2024-02-23T15:20:05;5.57;;;4.50;;
1691;SDS011;843;52.054;8.552;2024-02-23T15:22:31;4.60;;;4.30;;
1691;SDS011;843;52.054;8.552;2024-02-23T15:24:58;8.33;;;4.83;;
1691;SDS011;843;52.054;8.552;2024-02-23T15:27:24;5.10;;;4.70;;